sensor_id;sensor_type;location;lat;lon;timestamp;P1;durP1;ratioP1;P2;durP2;ratioP2
15899;SDS011;8048;50.644;6.184;2023-04-01T00:00:50;2.10;;;2.00;;
15899;SDS011;8048;50.644;6.184;2023-04-01T00:03:17;2.10;;;2.10;;
15899;SDS011;8048;50.644;6.184;2023-04-01T00:05:43;2.17;;;2.07;;
15899;SDS011;8048;50.644;6.184;2023-04-01T00:08:10;6.63;;;2.30;;
15899;SDS011;8048;50.644;6.184;2023-04-01T00:10:36;2.00;;;1.90;;
15899;SDS011;8048;50.644;6.184;2023-04-01T00:13:02;2.20;;;2.10;;
15899;SDS011;8048;50.644;6.184;2023-04-01T00:15:27;1.80;;;1.70;;
15899;SDS011;8048;50.644;6.184;2023-04-01T00:17:53;1.73;;;1.73;;
15899;SDS011;8048;50.644;6.184;2023-04-01T00:20:19;1.80;;;1.80;;
15899;SDS011;8048;50.644;6.184;2023-04-01T00:22:44;2.97;;;2.70;;
15899;SDS011;8048;50.644;6.184;2023-04-01T00:25:11;1.90;;;1.90;;
15899;SDS011;8048;50.644;6.184;2023-04-01T00:27:36;1.80;;;1.80;;
15899;SDS011;8048;50.644;6.184;2023-04-01T00:30:02;2.40;;;2.20;;
15899;SDS011;8048;50.644;6.184;2023-04-01T00:32:28;3.50;;;3.20;;
15899;SDS011;8048;50.644;6.184;2023-04-01T00:34:55;2.70;;;1.80;;
15899;SDS011;8048;50.644;6.184;2023-04-01T00:37:21;2.37;;;2.20;;
15899;SDS011;8048;50.644;6.184;2023-04-01T00:39:47;2.83;;;2.43;;
15899;SDS011;8048;50.644;6.184;2023-04-01T00:42:13;2.00;;;1.93;;
15899;SDS011;8048;50.644;6.184;2023-04-01T00:44:39;2.10;;;1.90;;
15899;SDS011;8048;50.644;6.184;2023-04-01T00:47:05;2.80;;;2.20;;
15899;SDS011;8048;50.644;6.184;2023-04-01T00:49:31;4.63;;;2.10;;
15899;SDS011;8048;50.644;6.184;2023-04-01T00:52:02;2.37;;;2.27;;
15899;SDS011;8048;50.644;6.184;2023-04-01T00:54:29;2.30;;;2.30;;
15899;SDS011;8048;50.644;6.184;2023-04-01T00:56:56;1.90;;;1.90;;
15899;SDS011;8048;50.644;6.184;2023-04-01T00:59:40;1.90;;;1.90;;
15899;SDS011;8048;50.644;6.184;2023-04-01T01:02:10;2.00;;;1.90;;
15899;SDS011;8048;50.644;6.184;2023-04-01T01:04:37;1.93;;;1.93;;
15899;SDS011;8048;50.644;6.184;2023-04-01T01:09:35;2.10;;;2.00;;
15899;SDS011;8048;50.644;6.184;2023-04-01T01:12:11;1.80;;;1.80;;
15899;SDS011;8048;50.644;6.184;2023-04-01T01:17:52;2.10;;;2.00;;
15899;SDS011;8048;50.644;6.184;2023-04-01T01:31:19;2.00;;;2.00;;
15899;SDS011;8048;50.644;6.184;2023-04-01T01:34:02;2.00;;;1.90;;
15899;SDS011;8048;50.644;6.184;2023-04-01T01:36:51;2.30;;;2.20;;
15899;SDS011;8048;50.644;6.184;2023-04-01T01:39:24;2.07;;;2.07;;
15899;SDS011;8048;50.644;6.184;2023-04-01T01:41:54;2.20;;;2.10;;
15899;SDS011;8048;50.644;6.184;2023-04-01T01:44:22;1.63;;;1.63;;
15899;SDS011;8048;50.644;6.184;2023-04-01T01:46:49;1.90;;;1.90;;
15899;SDS011;8048;50.644;6.184;2023-04-01T01:49:15;2.10;;;2.00;;
15899;SDS011;8048;50.644;6.184;2023-04-01T01:51:42;2.10;;;2.00;;
15899;SDS011;8048;50.644;6.184;2023-04-01T01:54:11;2.00;;;1.90;;
15899;SDS011;8048;50.644;6.184;2023-04-01T01:56:38;2.20;;;2.10;;
15899;SDS011;8048;50.644;6.184;2023-04-01T01:59:07;2.43;;;2.20;;
15899;SDS011;8048;50.644;6.184;2023-04-01T02:01:35;2.00;;;2.00;;
15899;SDS011;8048;50.644;6.184;2023-04-01T02:04:06;2.00;;;2.00;;
15899;SDS011;8048;50.644;6.184;2023-04-01T02:06:34;2.20;;;2.10;;
15899;SDS011;8048;50.644;6.184;2023-04-01T02:09:03;2.10;;;2.10;;
15899;SDS011;8048;50.644;6.184;2023-04-01T02:11:36;2.17;;;2.07;;
15899;SDS011;8048;50.644;6.184;2023-04-01T02:14:13;2.83;;;2.73;;
15899;SDS011;8048;50.644;6.184;2023-04-01T02:16:54;1.90;;;1.80;;
15899;SDS011;8048;50.644;6.184;2023-04-01T02:19:34;1.73;;;1.73;;
15899;SDS011;8048;50.644;6.184;2023-04-01T02:22:09;2.87;;;2.77;;
15899;SDS011;8048;50.644;6.184;2023-04-01T02:24:38;2.13;;;2.03;;
15899;SDS011;8048;50.644;6.184;2023-04-01T02:27:06;1.80;;;1.80;;
15899;SDS011;8048;50.644;6.184;2023-04-01T02:29:31;2.40;;;2.07;;
15899;SDS011;8048;50.644;6.184;2023-04-01T02:31:57;1.93;;;1.93;;
15899;SDS011;8048;50.644;6.184;2023-04-01T02:34:23;2.03;;;1.97;;
15899;SDS011;8048;50.644;6.184;2023-04-01T02:36:50;1.80;;;1.80;;
15899;SDS011;8048;50.644;6.184;2023-04-01T02:39:17;2.30;;;1.90;;
15899;SDS011;8048;50.644;6.184;2023-04-01T02:41:44;1.80;;;1.80;;
15899;SDS011;8048;50.644;6.184;2023-04-01T02:44:10;1.80;;;1.80;;
15899;SDS011;8048;50.644;6.184;2023-04-01T02:46:37;1.97;;;1.97;;
15899;SDS011;8048;50.644;6.184;2023-04-01T02:49:03;1.80;;;1.80;;
15899;SDS011;8048;50.644;6.184;2023-04-01T02:51:29;1.90;;;1.90;;
15899;SDS011;8048;50.644;6.184;2023-04-01T02:53:54;1.70;;;1.70;;
15899;SDS011;8048;50.644;6.184;2023-04-01T02:56:20;1.80;;;1.80;;
15899;SDS011;8048;50.644;6.184;2023-04-01T02:58:46;2.00;;;2.00;;
15899;SDS011;8048;50.644;6.184;2023-04-01T03:01:12;2.00;;;2.00;;
15899;SDS011;8048;50.644;6.184;2023-04-01T03:03:37;2.00;;;2.00;;
15899;SDS011;8048;50.644;6.184;2023-04-01T03:06:10;1.97;;;1.97;;
15899;SDS011;8048;50.644;6.184;2023-04-01T03:08:37;2.13;;;2.13;;
15899;SDS011;8048;50.644;6.184;2023-04-01T03:11:03;2.10;;;2.10;;
15899;SDS011;8048;50.644;6.184;2023-04-01T03:13:30;2.30;;;2.30;;
15899;SDS011;8048;50.644;6.184;2023-04-01T03:15:55;2.10;;;2.10;;
15899;SDS011;8048;50.644;6.184;2023-04-01T03:18:21;1.90;;;1.80;;
15899;SDS011;8048;50.644;6.184;2023-04-01T03:20:46;2.20;;;2.10;;
15899;SDS011;8048;50.644;6.184;2023-04-01T03:23:12;1.80;;;1.80;;
15899;SDS011;8048;50.644;6.184;2023-04-01T03:25:38;1.90;;;1.90;;
15899;SDS011;8048;50.644;6.184;2023-04-01T03:28:04;2.33;;;2.33;;
15899;SDS011;8048;50.644;6.184;2023-04-01T03:30:30;1.90;;;1.90;;
15899;SDS011;8048;50.644;6.184;2023-04-01T03:32:56;1.90;;;1.90;;
15899;SDS011;8048;50.644;6.184;2023-04-01T03:35:22;1.83;;;1.83;;
15899;SDS011;8048;50.644;6.184;2023-04-01T03:37:48;2.30;;;2.10;;
15899;SDS011;8048;50.644;6.184;2023-04-01T03:40:15;2.00;;;2.00;;
15899;SDS011;8048;50.644;6.184;2023-04-01T03:42:40;2.40;;;2.30;;
15899;SDS011;8048;50.644;6.184;2023-04-01T03:45:06;1.77;;;1.77;;
15899;SDS011;8048;50.644;6.184;2023-04-01T03:47:32;1.80;;;1.80;;
15899;SDS011;8048;50.644;6.184;2023-04-01T03:49:57;2.10;;;2.10;;
15899;SDS011;8048;50.644;6.184;2023-04-01T03:52:23;2.00;;;2.00;;
15899;SDS011;8048;50.644;6.184;2023-04-01T03:54:48;1.97;;;1.93;;
15899;SDS011;8048;50.644;6.184;2023-04-01T03:57:14;1.90;;;1.90;;
15899;SDS011;8048;50.644;6.184;2023-04-01T03:59:39;1.73;;;1.73;;
15899;SDS011;8048;50.644;6.184;2023-04-01T04:02:05;2.00;;;2.00;;
15899;SDS011;8048;50.644;6.184;2023-04-01T04:04:30;2.00;;;2.00;;
15899;SDS011;8048;50.644;6.184;2023-04-01T04:06:57;1.80;;;1.80;;
15899;SDS011;8048;50.644;6.184;2023-04-01T04:09:22;1.97;;;1.97;;
15899;SDS011;8048;50.644;6.184;2023-04-01T04:11:48;2.00;;;2.00;;
15899;SDS011;8048;50.644;6.184;2023-04-01T04:14:14;2.30;;;2.20;;
15899;SDS011;8048;50.644;6.184;2023-04-01T04:16:40;1.80;;;1.80;;
15899;SDS011;8048;50.644;6.184;2023-04-01T04:19:05;1.80;;;1.80;;
15899;SDS011;8048;50.644;6.184;2023-04-01T04:21:31;2.00;;;2.00;;
15899;SDS011;8048;50.644;6.184;2023-04-01T04:23:58;2.10;;;2.10;;
15899;SDS011;8048;50.644;6.184;2023-04-01T04:26:25;1.90;;;1.90;;
15899;SDS011;8048;50.644;6.184;2023-04-01T04:28:51;2.30;;;2.20;;
15899;SDS011;8048;50.644;6.184;2023-04-01T04:31:20;1.93;;;1.93;;
15899;SDS011;8048;50.644;6.184;2023-04-01T04:33:47;2.33;;;2.33;;
15899;SDS011;8048;50.644;6.184;2023-04-01T04:36:13;2.23;;;2.23;;
15899;SDS011;8048;50.644;6.184;2023-04-01T04:38:39;1.90;;;1.90;;
15899;SDS011;8048;50.644;6.184;2023-04-01T04:41:08;2.33;;;2.23;;
15899;SDS011;8048;50.644;6.184;2023-04-01T04:43:38;2.20;;;2.20;;
15899;SDS011;8048;50.644;6.184;2023-04-01T04:46:06;2.80;;;2.70;;
15899;SDS011;8048;50.644;6.184;2023-04-01T04:48:32;2.90;;;2.70;;
15899;SDS011;8048;50.644;6.184;2023-04-01T04:50:57;2.70;;;2.60;;
15899;SDS011;8048;50.644;6.184;2023-04-01T04:53:23;2.77;;;2.67;;
15899;SDS011;8048;50.644;6.184;2023-04-01T04:55:50;2.30;;;2.30;;
15899;SDS011;8048;50.644;6.184;2023-04-01T04:58:16;2.83;;;2.73;;
15899;SDS011;8048;50.644;6.184;2023-04-01T05:00:42;2.57;;;2.57;;
15899;SDS011;8048;50.644;6.184;2023-04-01T05:03:07;2.50;;;2.50;;
15899;SDS011;8048;50.644;6.184;2023-04-01T05:05:34;2.50;;;2.30;;
15899;SDS011;8048;50.644;6.184;2023-04-01T05:08:00;2.80;;;2.60;;
15899;SDS011;8048;50.644;6.184;2023-04-01T05:10:26;2.77;;;2.60;;
15899;SDS011;8048;50.644;6.184;2023-04-01T05:12:51;2.50;;;2.50;;
15899;SDS011;8048;50.644;6.184;2023-04-01T05:15:17;2.40;;;2.40;;
15899;SDS011;8048;50.644;6.184;2023-04-01T05:17:43;2.40;;;2.30;;
15899;SDS011;8048;50.644;6.184;2023-04-01T05:20:08;3.00;;;2.90;;
15899;SDS011;8048;50.644;6.184;2023-04-01T05:22:34;3.43;;;3.30;;
15899;SDS011;8048;50.644;6.184;2023-04-01T05:25:00;3.00;;;2.80;;
15899;SDS011;8048;50.644;6.184;2023-04-01T05:27:25;3.37;;;3.17;;
15899;SDS011;8048;50.644;6.184;2023-04-01T05:29:51;3.37;;;3.20;;
15899;SDS011;8048;50.644;6.184;2023-04-01T05:32:16;3.20;;;3.00;;
15899;SDS011;8048;50.644;6.184;2023-04-01T05:34:42;3.47;;;3.17;;
15899;SDS011;8048;50.644;6.184;2023-04-01T05:37:07;3.50;;;3.30;;
15899;SDS011;8048;50.644;6.184;2023-04-01T05:39:39;2.70;;;2.60;;
15899;SDS011;8048;50.644;6.184;2023-04-01T05:42:05;3.07;;;2.97;;
15899;SDS011;8048;50.644;6.184;2023-04-01T05:44:32;2.93;;;2.73;;
15899;SDS011;8048;50.644;6.184;2023-04-01T05:46:58;3.70;;;3.53;;
15899;SDS011;8048;50.644;6.184;2023-04-01T05:49:23;3.07;;;2.97;;
15899;SDS011;8048;50.644;6.184;2023-04-01T05:51:49;2.90;;;2.80;;
15899;SDS011;8048;50.644;6.184;2023-04-01T05:54:16;8.33;;;3.27;;
15899;SDS011;8048;50.644;6.184;2023-04-01T05:56:42;2.80;;;2.70;;
15899;SDS011;8048;50.644;6.184;2023-04-01T05:59:09;2.60;;;2.50;;
15899;SDS011;8048;50.644;6.184;2023-04-01T06:01:35;2.73;;;2.63;;
15899;SDS011;8048;50.644;6.184;2023-04-01T06:04:01;3.53;;;3.40;;
15899;SDS011;8048;50.644;6.184;2023-04-01T06:09:18;4.00;;;3.70;;
15899;SDS011;8048;50.644;6.184;2023-04-01T06:11:55;4.33;;;4.03;;
15899;SDS011;8048;50.644;6.184;2023-04-01T06:20:24;7.80;;;4.00;;
15899;SDS011;8048;50.644;6.184;2023-04-01T06:23:47;4.20;;;3.90;;
15899;SDS011;8048;50.644;6.184;2023-04-01T06:26:29;3.67;;;3.43;;
15899;SDS011;8048;50.644;6.184;2023-04-01T06:29:27;3.50;;;3.30;;
15899;SDS011;8048;50.644;6.184;2023-04-01T06:45:54;3.37;;;3.27;;
15899;SDS011;8048;50.644;6.184;2023-04-01T06:54:12;2.80;;;2.70;;
15899;SDS011;8048;50.644;6.184;2023-04-01T06:56:44;2.60;;;2.57;;
15899;SDS011;8048;50.644;6.184;2023-04-01T06:59:12;2.90;;;2.80;;
15899;SDS011;8048;50.644;6.184;2023-04-01T07:01:45;5.40;;;2.60;;
15899;SDS011;8048;50.644;6.184;2023-04-01T07:04:16;2.80;;;2.70;;
15899;SDS011;8048;50.644;6.184;2023-04-01T07:06:48;2.40;;;2.40;;
15899;SDS011;8048;50.644;6.184;2023-04-01T07:09:22;2.57;;;2.57;;
15899;SDS011;8048;50.644;6.184;2023-04-01T07:11:53;2.47;;;2.37;;
15899;SDS011;8048;50.644;6.184;2023-04-01T07:14:26;2.60;;;2.50;;
15899;SDS011;8048;50.644;6.184;2023-04-01T07:17:08;2.90;;;2.80;;
15899;SDS011;8048;50.644;6.184;2023-04-01T07:25:07;3.10;;;2.90;;
15899;SDS011;8048;50.644;6.184;2023-04-01T07:27:41;3.13;;;3.03;;
15899;SDS011;8048;50.644;6.184;2023-04-01T07:30:13;3.30;;;3.10;;
15899;SDS011;8048;50.644;6.184;2023-04-01T07:32:45;3.10;;;3.00;;
15899;SDS011;8048;50.644;6.184;2023-04-01T07:35:27;2.90;;;2.70;;
15899;SDS011;8048;50.644;6.184;2023-04-01T07:38:18;3.00;;;2.90;;
15899;SDS011;8048;50.644;6.184;2023-04-01T07:41:07;2.67;;;2.57;;
15899;SDS011;8048;50.644;6.184;2023-04-01T07:43:49;3.33;;;3.13;;
15899;SDS011;8048;50.644;6.184;2023-04-01T07:46:31;2.63;;;2.53;;
15899;SDS011;8048;50.644;6.184;2023-04-01T07:49:31;3.30;;;3.20;;
15899;SDS011;8048;50.644;6.184;2023-04-01T07:54:58;3.30;;;3.20;;
15899;SDS011;8048;50.644;6.184;2023-04-01T07:57:43;3.10;;;3.00;;
15899;SDS011;8048;50.644;6.184;2023-04-01T08:00:21;2.83;;;2.73;;
15899;SDS011;8048;50.644;6.184;2023-04-01T08:03:13;3.20;;;3.03;;
15899;SDS011;8048;50.644;6.184;2023-04-01T08:05:49;2.90;;;2.80;;
15899;SDS011;8048;50.644;6.184;2023-04-01T08:08:41;2.20;;;2.20;;
15899;SDS011;8048;50.644;6.184;2023-04-01T08:17:03;2.90;;;2.80;;
15899;SDS011;8048;50.644;6.184;2023-04-01T08:19:48;2.70;;;2.60;;
15899;SDS011;8048;50.644;6.184;2023-04-01T08:22:38;3.30;;;3.10;;
15899;SDS011;8048;50.644;6.184;2023-04-01T08:25:10;3.97;;;3.67;;
15899;SDS011;8048;50.644;6.184;2023-04-01T08:27:47;4.00;;;3.73;;
15899;SDS011;8048;50.644;6.184;2023-04-01T08:30:27;3.67;;;3.57;;
15899;SDS011;8048;50.644;6.184;2023-04-01T08:33:29;4.03;;;3.30;;
15899;SDS011;8048;50.644;6.184;2023-04-01T08:35:59;2.60;;;2.60;;
15899;SDS011;8048;50.644;6.184;2023-04-01T08:38:32;3.60;;;3.40;;
15899;SDS011;8048;50.644;6.184;2023-04-01T08:46:43;3.77;;;3.67;;
15899;SDS011;8048;50.644;6.184;2023-04-01T08:49:50;4.00;;;3.80;;
15899;SDS011;8048;50.644;6.184;2023-04-01T08:58:20;2.57;;;2.47;;
15899;SDS011;8048;50.644;6.184;2023-04-01T09:01:01;3.37;;;3.27;;
15899;SDS011;8048;50.644;6.184;2023-04-01T09:03:58;3.10;;;3.00;;
15899;SDS011;8048;50.644;6.184;2023-04-01T09:07:14;3.13;;;3.03;;
15899;SDS011;8048;50.644;6.184;2023-04-01T09:16:01;3.00;;;2.90;;
15899;SDS011;8048;50.644;6.184;2023-04-01T09:21:40;3.37;;;3.27;;
15899;SDS011;8048;50.644;6.184;2023-04-01T09:24:19;2.93;;;2.83;;
15899;SDS011;8048;50.644;6.184;2023-04-01T09:29:40;3.00;;;2.90;;
15899;SDS011;8048;50.644;6.184;2023-04-01T09:32:42;3.20;;;3.10;;
15899;SDS011;8048;50.644;6.184;2023-04-01T09:38:40;2.30;;;2.30;;
15899;SDS011;8048;50.644;6.184;2023-04-01T09:41:31;3.30;;;3.13;;
15899;SDS011;8048;50.644;6.184;2023-04-01T10:00:39;3.70;;;3.40;;
15899;SDS011;8048;50.644;6.184;2023-04-01T10:08:50;3.20;;;3.03;;
15899;SDS011;8048;50.644;6.184;2023-04-01T10:14:37;3.27;;;3.17;;
15899;SDS011;8048;50.644;6.184;2023-04-01T10:17:39;3.60;;;3.40;;
15899;SDS011;8048;50.644;6.184;2023-04-01T10:53:30;3.10;;;3.00;;
15899;SDS011;8048;50.644;6.184;2023-04-01T10:59:09;3.30;;;3.20;;
15899;SDS011;8048;50.644;6.184;2023-04-01T11:07:22;2.70;;;2.60;;
15899;SDS011;8048;50.644;6.184;2023-04-01T11:16:18;2.40;;;2.30;;
15899;SDS011;8048;50.644;6.184;2023-04-01T11:18:59;2.93;;;2.73;;
15899;SDS011;8048;50.644;6.184;2023-04-01T11:27:55;2.47;;;2.37;;
15899;SDS011;8048;50.644;6.184;2023-04-01T11:30:44;2.67;;;2.57;;
15899;SDS011;8048;50.644;6.184;2023-04-01T11:36:11;2.10;;;2.10;;
15899;SDS011;8048;50.644;6.184;2023-04-01T11:41:52;2.40;;;2.30;;
15899;SDS011;8048;50.644;6.184;2023-04-01T11:44:42;2.90;;;2.80;;
15899;SDS011;8048;50.644;6.184;2023-04-01T11:58:19;2.20;;;2.20;;
15899;SDS011;8048;50.644;6.184;2023-04-01T12:01:33;2.30;;;2.20;;
15899;SDS011;8048;50.644;6.184;2023-04-01T12:10:15;2.27;;;2.17;;
15899;SDS011;8048;50.644;6.184;2023-04-01T12:18:30;2.67;;;2.57;;
15899;SDS011;8048;50.644;6.184;2023-04-01T12:21:17;3.03;;;2.83;;
15899;SDS011;8048;50.644;6.184;2023-04-01T12:24:20;3.13;;;3.03;;
15899;SDS011;8048;50.644;6.184;2023-04-01T12:27:11;2.53;;;2.43;;
15899;SDS011;8048;50.644;6.184;2023-04-01T12:33:05;2.50;;;2.40;;
15899;SDS011;8048;50.644;6.184;2023-04-01T12:52:26;3.30;;;3.10;;
15899;SDS011;8048;50.644;6.184;2023-04-01T12:55:07;3.57;;;3.37;;
15899;SDS011;8048;50.644;6.184;2023-04-01T13:00:51;4.90;;;4.60;;
15899;SDS011;8048;50.644;6.184;2023-04-01T13:08:58;3.70;;;3.40;;
15899;SDS011;8048;50.644;6.184;2023-04-01T13:22:15;3.40;;;3.20;;
15899;SDS011;8048;50.644;6.184;2023-04-01T13:27:41;3.93;;;3.63;;
15899;SDS011;8048;50.644;6.184;2023-04-01T13:32:49;3.90;;;3.70;;
15899;SDS011;8048;50.644;6.184;2023-04-01T13:35:38;3.63;;;3.50;;
15899;SDS011;8048;50.644;6.184;2023-04-01T13:41:21;2.93;;;2.83;;
15899;SDS011;8048;50.644;6.184;2023-04-01T13:44:10;3.13;;;3.00;;
15899;SDS011;8048;50.644;6.184;2023-04-01T13:46:54;3.97;;;3.77;;
15899;SDS011;8048;50.644;6.184;2023-04-01T13:55:19;2.93;;;2.80;;
15899;SDS011;8048;50.644;6.184;2023-04-01T14:09:42;3.37;;;3.27;;
15899;SDS011;8048;50.644;6.184;2023-04-01T14:12:21;2.93;;;2.83;;
15899;SDS011;8048;50.644;6.184;2023-04-01T14:20:32;3.10;;;2.90;;
15899;SDS011;8048;50.644;6.184;2023-04-01T14:23:13;3.40;;;3.20;;
15899;SDS011;8048;50.644;6.184;2023-04-01T14:48:37;3.50;;;3.30;;
15899;SDS011;8048;50.644;6.184;2023-04-01T14:51:28;4.07;;;3.80;;
15899;SDS011;8048;50.644;6.184;2023-04-01T14:54:03;4.67;;;4.20;;
15899;SDS011;8048;50.644;6.184;2023-04-01T14:56:40;4.40;;;4.20;;
15899;SDS011;8048;50.644;6.184;2023-04-01T15:01:55;3.50;;;3.20;;
15899;SDS011;8048;50.644;6.184;2023-04-01T15:04:46;4.07;;;3.87;;
15899;SDS011;8048;50.644;6.184;2023-04-01T15:07:30;3.43;;;3.23;;
15899;SDS011;8048;50.644;6.184;2023-04-01T15:13:30;3.33;;;3.23;;
15899;SDS011;8048;50.644;6.184;2023-04-01T15:24:38;3.30;;;3.10;;
15899;SDS011;8048;50.644;6.184;2023-04-01T15:35:52;3.10;;;2.90;;
15899;SDS011;8048;50.644;6.184;2023-04-01T15:41:07;2.83;;;2.73;;
15899;SDS011;8048;50.644;6.184;2023-04-01T15:43:44;2.67;;;2.57;;
15899;SDS011;8048;50.644;6.184;2023-04-01T15:49:19;4.70;;;3.10;;
15899;SDS011;8048;50.644;6.184;2023-04-01T15:52:08;3.17;;;3.07;;
15899;SDS011;8048;50.644;6.184;2023-04-01T16:03:23;3.40;;;3.20;;
15899;SDS011;8048;50.644;6.184;2023-04-01T16:12:21;3.00;;;2.90;;
15899;SDS011;8048;50.644;6.184;2023-04-01T16:15:09;3.80;;;3.50;;
15899;SDS011;8048;50.644;6.184;2023-04-01T16:20:51;3.03;;;2.93;;
15899;SDS011;8048;50.644;6.184;2023-04-01T16:23:51;3.40;;;3.20;;
15899;SDS011;8048;50.644;6.184;2023-04-01T16:26:26;3.73;;;3.27;;
15899;SDS011;8048;50.644;6.184;2023-04-01T16:31:47;3.73;;;3.57;;
15899;SDS011;8048;50.644;6.184;2023-04-01T16:45:42;3.67;;;3.47;;
15899;SDS011;8048;50.644;6.184;2023-04-01T16:48:18;3.27;;;3.17;;
15899;SDS011;8048;50.644;6.184;2023-04-01T16:50:52;2.80;;;2.70;;
15899;SDS011;8048;50.644;6.184;2023-04-01T16:53:42;4.43;;;4.13;;
15899;SDS011;8048;50.644;6.184;2023-04-01T16:56:12;5.40;;;5.00;;
15899;SDS011;8048;50.644;6.184;2023-04-01T16:59:01;4.17;;;3.97;;
15899;SDS011;8048;50.644;6.184;2023-04-01T17:01:44;4.83;;;4.53;;
15899;SDS011;8048;50.644;6.184;2023-04-01T17:04:27;4.30;;;4.00;;
15899;SDS011;8048;50.644;6.184;2023-04-01T17:28:47;4.00;;;3.70;;
15899;SDS011;8048;50.644;6.184;2023-04-01T17:31:33;3.87;;;3.57;;
15899;SDS011;8048;50.644;6.184;2023-04-01T17:42:07;3.27;;;3.07;;
15899;SDS011;8048;50.644;6.184;2023-04-01T17:53:24;3.17;;;2.97;;
15899;SDS011;8048;50.644;6.184;2023-04-01T17:55:59;3.73;;;3.43;;
15899;SDS011;8048;50.644;6.184;2023-04-01T18:06:21;2.87;;;2.67;;
15899;SDS011;8048;50.644;6.184;2023-04-01T18:11:59;3.43;;;3.23;;
15899;SDS011;8048;50.644;6.184;2023-04-01T18:25:36;2.97;;;2.77;;
15899;SDS011;8048;50.644;6.184;2023-04-01T18:36:33;3.30;;;3.20;;
15899;SDS011;8048;50.644;6.184;2023-04-01T18:39:10;3.30;;;3.20;;
15899;SDS011;8048;50.644;6.184;2023-04-01T18:42:12;2.87;;;2.67;;
15899;SDS011;8048;50.644;6.184;2023-04-01T18:45:21;3.10;;;3.00;;
15899;SDS011;8048;50.644;6.184;2023-04-01T18:50:53;3.27;;;3.17;;
15899;SDS011;8048;50.644;6.184;2023-04-01T18:53:29;3.10;;;3.00;;
15899;SDS011;8048;50.644;6.184;2023-04-01T18:56:07;3.53;;;3.40;;
15899;SDS011;8048;50.644;6.184;2023-04-01T18:58:46;3.10;;;3.00;;
15899;SDS011;8048;50.644;6.184;2023-04-01T19:01:28;3.37;;;3.13;;
15899;SDS011;8048;50.644;6.184;2023-04-01T19:04:23;3.53;;;3.33;;
15899;SDS011;8048;50.644;6.184;2023-04-01T19:06:52;3.30;;;3.10;;
15899;SDS011;8048;50.644;6.184;2023-04-01T19:09:26;3.63;;;3.50;;
15899;SDS011;8048;50.644;6.184;2023-04-01T19:37:51;4.33;;;4.13;;
15899;SDS011;8048;50.644;6.184;2023-04-01T19:40:23;3.03;;;2.93;;
15899;SDS011;8048;50.644;6.184;2023-04-01T19:43:11;3.40;;;3.30;;
15899;SDS011;8048;50.644;6.184;2023-04-01T19:48:13;3.10;;;3.00;;
15899;SDS011;8048;50.644;6.184;2023-04-01T19:51:01;3.07;;;2.87;;
15899;SDS011;8048;50.644;6.184;2023-04-01T19:53:37;3.30;;;3.00;;
15899;SDS011;8048;50.644;6.184;2023-04-01T19:56:14;3.03;;;2.93;;
15899;SDS011;8048;50.644;6.184;2023-04-01T19:58:56;3.17;;;2.97;;
15899;SDS011;8048;50.644;6.184;2023-04-01T20:01:41;3.37;;;3.27;;
15899;SDS011;8048;50.644;6.184;2023-04-01T20:04:14;2.97;;;2.83;;
15899;SDS011;8048;50.644;6.184;2023-04-01T20:10:04;3.63;;;3.43;;
15899;SDS011;8048;50.644;6.184;2023-04-01T20:15:21;2.77;;;2.67;;
15899;SDS011;8048;50.644;6.184;2023-04-01T20:17:47;3.23;;;3.03;;
15899;SDS011;8048;50.644;6.184;2023-04-01T20:20:19;3.33;;;3.17;;
15899;SDS011;8048;50.644;6.184;2023-04-01T20:22:55;3.27;;;3.17;;
15899;SDS011;8048;50.644;6.184;2023-04-01T20:31:04;3.60;;;3.30;;
15899;SDS011;8048;50.644;6.184;2023-04-01T20:36:36;3.60;;;3.40;;
15899;SDS011;8048;50.644;6.184;2023-04-01T20:52:41;3.27;;;3.07;;
15899;SDS011;8048;50.644;6.184;2023-04-01T20:58:24;3.50;;;3.30;;
15899;SDS011;8048;50.644;6.184;2023-04-01T21:04:12;2.90;;;2.80;;
15899;SDS011;8048;50.644;6.184;2023-04-01T21:12:36;3.17;;;3.00;;
15899;SDS011;8048;50.644;6.184;2023-04-01T21:20:34;2.93;;;2.83;;
15899;SDS011;8048;50.644;6.184;2023-04-01T21:23:29;3.03;;;2.90;;
15899;SDS011;8048;50.644;6.184;2023-04-01T21:29:27;3.30;;;3.10;;
15899;SDS011;8048;50.644;6.184;2023-04-01T21:31:27;3.33;;;3.13;;
15899;SDS011;8048;50.644;6.184;2023-04-01T21:39:47;2.83;;;2.70;;
15899;SDS011;8048;50.644;6.184;2023-04-01T21:45:36;2.20;;;2.20;;
15899;SDS011;8048;50.644;6.184;2023-04-01T22:00:11;3.53;;;3.33;;
15899;SDS011;8048;50.644;6.184;2023-04-01T22:08:04;3.10;;;3.00;;
15899;SDS011;8048;50.644;6.184;2023-04-01T22:10:57;2.50;;;2.40;;
15899;SDS011;8048;50.644;6.184;2023-04-01T22:13:39;2.70;;;2.60;;
15899;SDS011;8048;50.644;6.184;2023-04-01T22:16:26;3.87;;;3.63;;
15899;SDS011;8048;50.644;6.184;2023-04-01T22:22:12;9.30;;;8.40;;
15899;SDS011;8048;50.644;6.184;2023-04-01T22:24:47;4.87;;;4.47;;
15899;SDS011;8048;50.644;6.184;2023-04-01T22:27:45;2.60;;;2.50;;
15899;SDS011;8048;50.644;6.184;2023-04-01T22:30:24;3.20;;;3.00;;
15899;SDS011;8048;50.644;6.184;2023-04-01T22:32:59;3.03;;;2.93;;
15899;SDS011;8048;50.644;6.184;2023-04-01T22:35:42;3.30;;;3.10;;
15899;SDS011;8048;50.644;6.184;2023-04-01T22:47:03;3.20;;;2.80;;
15899;SDS011;8048;50.644;6.184;2023-04-01T22:49:43;2.87;;;2.67;;
15899;SDS011;8048;50.644;6.184;2023-04-01T22:52:35;3.60;;;3.40;;
15899;SDS011;8048;50.644;6.184;2023-04-01T22:55:42;3.23;;;3.03;;
15899;SDS011;8048;50.644;6.184;2023-04-01T22:58:04;4.17;;;3.87;;
15899;SDS011;8048;50.644;6.184;2023-04-01T23:00:33;2.47;;;2.37;;
15899;SDS011;8048;50.644;6.184;2023-04-01T23:03:11;3.87;;;3.57;;
15899;SDS011;8048;50.644;6.184;2023-04-01T23:05:54;3.20;;;2.90;;
15899;SDS011;8048;50.644;6.184;2023-04-01T23:10:54;2.83;;;2.63;;
15899;SDS011;8048;50.644;6.184;2023-04-01T23:13:24;3.70;;;3.23;;
15899;SDS011;8048;50.644;6.184;2023-04-01T23:15:54;4.50;;;4.10;;
15899;SDS011;8048;50.644;6.184;2023-04-01T23:18:22;2.80;;;2.60;;
15899;SDS011;8048;50.644;6.184;2023-04-01T23:21:15;2.20;;;2.10;;
15899;SDS011;8048;50.644;6.184;2023-04-01T23:29:36;3.03;;;2.83;;
15899;SDS011;8048;50.644;6.184;2023-04-01T23:32:14;2.77;;;2.57;;
15899;SDS011;8048;50.644;6.184;2023-04-01T23:34:46;2.87;;;2.77;;
15899;SDS011;8048;50.644;6.184;2023-04-01T23:37:14;2.80;;;2.60;;
15899;SDS011;8048;50.644;6.184;2023-04-01T23:39:44;3.03;;;2.83;;
15899;SDS011;8048;50.644;6.184;2023-04-01T23:42:30;2.50;;;2.40;;
15899;SDS011;8048;50.644;6.184;2023-04-01T23:45:13;2.43;;;2.33;;
15899;SDS011;8048;50.644;6.184;2023-04-01T23:47:45;2.93;;;2.60;;
15899;SDS011;8048;50.644;6.184;2023-04-01T23:50:16;2.63;;;2.43;;
15899;SDS011;8048;50.644;6.184;2023-04-01T23:52:47;2.50;;;2.40;;
15899;SDS011;8048;50.644;6.184;2023-04-01T23:55:27;2.67;;;2.57;;
15899;SDS011;8048;50.644;6.184;2023-04-01T23:58:00;3.77;;;3.40;;
